Terminal Aerodrome Forecast
Issued by NWS

Home | Current Version | Previous Version | Text Only | Print | Product List | Glossary On
Versions: 1 2 3 4 5 6 7 8 9 10 11 12 13 14 15
654
FTUS43 KLSX 131121
TAFCPS
TAF
KCPS 131121Z 1312/1412 19008KT P6SM SKC WS020/22040KT
     FM131500 20013G23KT P6SM FEW140
     FM131700 25016G28KT P6SM FEW200
     FM132000 29017G27KT P6SM FEW045
     FM140600 32012G20KT P6SM BKN025
     FM140900 33010G17KT P6SM SCT025=

USA.gov is the U.S. government's official web portal to all federal, state and local government web resources and services.